createdAt,value
2017-10-25T00:02:20.467Z,12.70
2017-10-25T00:04:49.329Z,10.60
2017-10-25T00:07:18.572Z,12.02
2017-10-25T00:09:47.448Z,13.10
2017-10-25T00:12:15.931Z,11.35
2017-10-25T00:14:44.816Z,11.30
2017-10-25T00:17:13.675Z,11.63
2017-10-25T00:19:41.768Z,12.55
2017-10-25T00:22:10.648Z,13.15
2017-10-25T00:24:38.743Z,12.30
2017-10-25T00:27:08.367Z,14.18
2017-10-25T00:29:36.854Z,14.70
2017-10-25T00:32:04.957Z,12.68
2017-10-25T00:34:33.063Z,12.32
2017-10-25T00:37:01.171Z,12.82
2017-10-25T00:39:29.283Z,11.98
2017-10-25T00:41:57.379Z,12.23
2017-10-25T00:44:25.491Z,13.35
2017-10-25T00:46:53.656Z,13.38
2017-10-25T00:49:21.750Z,13.38
2017-10-25T00:51:50.975Z,13.02
2017-10-25T00:54:19.083Z,11.98
2017-10-25T00:56:47.952Z,13.73
2017-10-25T00:59:16.079Z,13.20
2017-10-25T01:01:44.172Z,13.55
2017-10-25T01:04:12.263Z,14.18
2017-10-25T01:06:40.363Z,12.80
2017-10-25T01:09:09.224Z,13.50
2017-10-25T01:11:37.336Z,12.82
2017-10-25T01:14:06.195Z,13.35
2017-10-25T01:16:34.295Z,12.73
2017-10-25T01:19:03.152Z,13.05
2017-10-25T01:21:31.259Z,13.15
2017-10-25T01:24:00.148Z,13.35
2017-10-25T01:26:29.736Z,11.77
2017-10-25T01:28:57.827Z,11.75
2017-10-25T01:31:26.712Z,12.70
2017-10-25T01:33:55.195Z,12.15
2017-10-25T01:36:24.056Z,11.85
2017-10-25T01:38:52.159Z,11.90
2017-10-25T01:41:21.030Z,13.60
2017-10-25T01:43:49.148Z,13.57
2017-10-25T01:46:17.239Z,14.15
2017-10-25T01:48:45.325Z,13.40
2017-10-25T01:51:14.197Z,13.70
2017-10-25T01:53:42.299Z,13.32
2017-10-25T01:56:10.392Z,14.70
2017-10-25T01:58:38.499Z,14.13
2017-10-25T02:01:08.107Z,13.70
2017-10-25T02:03:36.218Z,14.75
2017-10-25T02:06:05.658Z,13.25
2017-10-25T02:08:34.467Z,13.62
2017-10-25T02:11:02.542Z,14.40
2017-10-25T02:13:31.399Z,13.52
2017-10-25T02:15:59.902Z,13.35
2017-10-25T02:18:28.754Z,13.68
2017-10-25T02:20:56.859Z,13.75
2017-10-25T02:23:26.454Z,14.95
2017-10-25T02:25:55.326Z,15.20
2017-10-25T02:28:23.419Z,13.40
2017-10-25T02:30:52.302Z,13.73
2017-10-25T02:33:20.391Z,15.07
2017-10-25T02:35:49.266Z,13.40
2017-10-25T02:38:17.744Z,12.37
2017-10-25T02:40:45.827Z,14.50
2017-10-25T02:43:14.699Z,13.38
2017-10-25T02:45:44.315Z,13.13
2017-10-25T02:48:12.399Z,13.32
2017-10-25T02:50:41.281Z,12.55
2017-10-25T02:53:10.875Z,14.80
2017-10-25T02:55:38.988Z,13.48
2017-10-25T02:58:08.427Z,12.63
2017-10-25T03:00:36.447Z,13.73
2017-10-25T03:03:05.692Z,13.13
2017-10-25T03:05:34.914Z,11.32
2017-10-25T03:08:03.035Z,11.63
2017-10-25T03:10:31.127Z,12.48
2017-10-25T03:13:00.357Z,11.55
2017-10-25T03:15:28.460Z,12.60
2017-10-25T03:17:57.335Z,11.75
2017-10-25T03:20:25.410Z,12.00
2017-10-25T03:22:53.527Z,12.32
2017-10-25T03:25:21.614Z,13.15
2017-10-25T03:27:49.778Z,12.75
2017-10-25T03:30:17.883Z,12.02
2017-10-25T03:32:46.019Z,11.35
2017-10-25T03:35:14.089Z,11.98
2017-10-25T03:37:42.187Z,11.38
2017-10-25T03:40:10.287Z,10.90
2017-10-25T03:42:38.381Z,12.23
2017-10-25T03:45:07.246Z,12.90
2017-10-25T03:47:35.355Z,11.82
2017-10-25T03:50:04.235Z,12.00
2017-10-25T03:52:33.083Z,11.85
2017-10-25T03:55:01.203Z,12.27
2017-10-25T03:57:30.059Z,12.45
2017-10-25T03:59:59.668Z,13.10
2017-10-25T04:02:27.783Z,13.65
2017-10-25T04:04:56.632Z,13.20
2017-10-25T04:07:24.734Z,12.32
2017-10-25T04:09:53.591Z,11.70
2017-10-25T04:12:22.467Z,12.75
2017-10-25T04:14:50.578Z,12.80
2017-10-25T04:17:18.671Z,11.73
2017-10-25T04:19:47.547Z,13.50
2017-10-25T04:22:16.404Z,13.02
2017-10-25T04:24:45.651Z,11.88
2017-10-25T04:27:13.739Z,12.93
2017-10-25T04:29:41.854Z,11.52
2017-10-25T04:32:09.935Z,11.77
2017-10-25T04:34:38.031Z,11.90
2017-10-25T04:37:06.941Z,12.55
2017-10-25T04:39:35.023Z,11.77
2017-10-25T04:42:03.143Z,11.98
2017-10-25T04:44:31.227Z,12.90
2017-10-25T04:46:59.314Z,10.60
2017-10-25T04:49:28.187Z,11.95
2017-10-25T04:51:57.058Z,11.12
2017-10-25T04:54:25.146Z,10.60
2017-10-25T04:56:53.262Z,12.35
2017-10-25T04:59:22.119Z,12.32
2017-10-25T05:01:50.227Z,11.40
2017-10-25T05:04:19.869Z,11.07
2017-10-25T05:06:47.929Z,12.48
2017-10-25T05:09:16.139Z,11.60
2017-10-25T05:11:44.254Z,12.65
2017-10-25T05:14:12.343Z,13.05
2017-10-25T05:16:40.423Z,12.88
2017-10-25T05:19:08.535Z,14.45
2017-10-25T05:21:37.406Z,13.88
2017-10-25T05:24:07.011Z,13.98
2017-10-25T05:26:35.104Z,14.90
2017-10-25T05:29:03.206Z,14.07
2017-10-25T05:31:31.322Z,16.87
2017-10-25T05:33:59.412Z,16.10
2017-10-25T05:36:27.528Z,16.20
2017-10-25T05:38:55.618Z,16.85
2017-10-25T05:41:23.731Z,15.60
2017-10-25T05:43:52.234Z,14.50
2017-10-25T05:46:21.103Z,17.45
2017-10-25T05:48:49.232Z,17.08
2017-10-25T05:51:17.332Z,15.05
2017-10-25T05:53:45.443Z,16.80
2017-10-25T05:56:14.319Z,15.65
2017-10-25T05:58:42.432Z,14.70
2017-10-25T06:01:10.539Z,13.85
2017-10-25T06:03:38.627Z,12.93
2017-10-25T06:06:06.742Z,13.77
2017-10-25T06:08:34.831Z,12.80
2017-10-25T06:11:03.687Z,12.70
2017-10-25T06:13:32.561Z,11.98
2017-10-25T06:16:00.663Z,13.27
2017-10-25T06:18:30.265Z,11.93
2017-10-25T06:20:59.138Z,12.23
2017-10-25T06:23:27.254Z,10.10
2017-10-25T06:25:55.335Z,11.07
2017-10-25T06:28:23.438Z,9.18
2017-10-25T06:30:51.561Z,9.40
2017-10-25T06:33:20.419Z,10.35
2017-10-25T06:35:48.507Z,10.55
2017-10-25T06:38:17.374Z,9.48
2017-10-25T06:40:45.478Z,10.27
2017-10-25T06:43:14.334Z,10.35
2017-10-25T06:45:42.439Z,9.70
2017-10-25T06:48:10.542Z,10.93
2017-10-25T06:50:39.030Z,10.38
2017-10-25T06:53:07.134Z,9.45
2017-10-25T06:55:35.214Z,10.77
2017-10-25T06:58:03.303Z,9.30
2017-10-25T07:00:32.171Z,9.65
2017-10-25T07:03:00.254Z,9.50
2017-10-25T07:05:29.123Z,8.35
2017-10-25T07:07:57.203Z,8.43
2017-10-25T07:10:25.316Z,8.95
2017-10-25T07:12:54.138Z,8.57
2017-10-25T07:15:22.237Z,7.68
2017-10-25T07:17:50.310Z,7.82
2017-10-25T07:20:18.403Z,7.25
2017-10-25T07:22:47.270Z,7.07
2017-10-25T07:25:15.347Z,7.03
2017-10-25T07:27:43.456Z,5.80
2017-10-25T07:30:11.531Z,6.55
2017-10-25T07:32:39.607Z,5.45
2017-10-25T07:35:08.108Z,6.35
2017-10-25T07:37:36.178Z,6.28
2017-10-25T07:40:04.294Z,7.25
2017-10-25T07:42:32.374Z,5.60
2017-10-25T07:45:00.479Z,6.72
2017-10-25T07:47:28.574Z,6.40
2017-10-25T07:49:56.675Z,6.37
2017-10-25T07:52:24.778Z,5.82
2017-10-25T07:54:53.255Z,6.20
2017-10-25T07:57:21.726Z,6.68
2017-10-25T07:59:50.582Z,5.53
2017-10-25T08:02:18.664Z,8.57
2017-10-25T08:04:46.775Z,7.15
2017-10-25T08:07:14.889Z,7.47
2017-10-25T08:09:42.966Z,8.32
2017-10-25T08:12:11.077Z,8.05
2017-10-25T08:14:39.159Z,8.82
2017-10-25T08:17:07.999Z,8.23
2017-10-25T08:19:36.111Z,8.60
2017-10-25T08:22:04.186Z,8.48
2017-10-25T08:24:33.042Z,7.15
2017-10-25T08:27:01.623Z,10.00
2017-10-25T08:29:29.707Z,9.80
2017-10-25T08:31:58.552Z,8.38
2017-10-25T08:34:26.645Z,8.57
2017-10-25T08:36:55.496Z,8.88
2017-10-25T08:39:25.115Z,8.88
2017-10-25T08:41:53.196Z,7.68
2017-10-25T08:44:21.274Z,7.40
2017-10-25T08:46:49.391Z,8.35
2017-10-25T08:49:17.466Z,7.10
2017-10-25T08:51:45.547Z,7.62
2017-10-25T08:54:14.408Z,6.25
2017-10-25T08:56:42.521Z,6.65
2017-10-25T08:59:11.362Z,6.07
2017-10-25T09:01:39.447Z,5.45
2017-10-25T09:04:07.547Z,5.90
2017-10-25T09:06:35.627Z,5.97
2017-10-25T09:09:04.858Z,6.40
2017-10-25T09:11:33.706Z,5.25
2017-10-25T09:14:01.800Z,5.80
2017-10-25T09:16:30.658Z,6.00
2017-10-25T09:18:58.735Z,6.60
2017-10-25T09:21:26.840Z,5.57
2017-10-25T09:23:55.683Z,5.35
2017-10-25T09:26:24.284Z,5.68
2017-10-25T09:28:52.358Z,5.68
2017-10-25T09:31:20.447Z,5.05
2017-10-25T09:33:48.924Z,5.22
2017-10-25T09:36:17.795Z,5.70
2017-10-25T09:38:47.374Z,5.45
2017-10-25T09:41:15.451Z,5.10
2017-10-25T09:43:43.542Z,5.05
2017-10-25T09:46:11.635Z,5.05
2017-10-25T09:48:39.715Z,4.78
2017-10-25T09:51:08.563Z,4.30
2017-10-25T09:53:36.655Z,4.40
2017-10-25T09:56:04.763Z,3.87
2017-10-25T09:58:33.603Z,4.07
2017-10-25T10:01:01.682Z,4.30
2017-10-25T10:03:29.778Z,4.30
2017-10-25T10:05:58.238Z,4.95
2017-10-25T10:08:26.387Z,4.00
2017-10-25T10:10:54.468Z,5.40
2017-10-25T10:13:22.562Z,4.60
2017-10-25T10:15:50.727Z,4.65
2017-10-25T10:18:18.832Z,5.03
2017-10-25T10:20:47.675Z,4.68
2017-10-25T10:23:15.751Z,5.15
2017-10-25T10:25:43.846Z,5.28
2017-10-25T10:28:11.928Z,5.55
2017-10-25T10:30:40.028Z,5.22
2017-10-25T10:33:08.102Z,5.25
2017-10-25T10:35:36.946Z,6.07
2017-10-25T10:38:05.054Z,5.32
2017-10-25T10:40:33.887Z,5.10
2017-10-25T10:43:01.983Z,5.68
2017-10-25T10:45:30.054Z,4.70
2017-10-25T10:47:58.146Z,3.45
2017-10-25T10:50:27.023Z,3.72
2017-10-25T10:52:55.100Z,3.42
2017-10-25T10:55:23.947Z,4.62
2017-10-25T10:57:52.043Z,3.50
2017-10-25T11:00:20.118Z,3.78
2017-10-25T11:02:48.194Z,3.40
2017-10-25T11:05:18.936Z,2.47
2017-10-25T11:07:47.047Z,3.08
2017-10-25T11:10:16.489Z,3.20
2017-10-25T11:12:46.003Z,3.35
2017-10-25T11:15:14.121Z,2.42
2017-10-25T11:17:42.955Z,3.25
2017-10-25T11:20:11.059Z,3.17
2017-10-25T11:22:39.140Z,3.90
2017-10-25T11:25:07.979Z,3.10
2017-10-25T11:27:36.088Z,2.67
2017-10-25T11:30:04.158Z,2.42
2017-10-25T11:32:32.259Z,2.78
2017-10-25T11:35:01.103Z,2.67
2017-10-25T11:37:29.210Z,2.00
2017-10-25T11:39:58.054Z,2.15
2017-10-25T11:42:26.132Z,1.90
2017-10-25T11:44:54.231Z,1.50
2017-10-25T11:47:22.332Z,2.28
2017-10-25T11:49:51.186Z,1.25
2017-10-25T11:52:19.258Z,1.90
2017-10-25T11:54:47.380Z,2.17
2017-10-25T11:57:15.472Z,1.95
2017-10-25T11:59:43.531Z,2.25
2017-10-25T12:02:11.615Z,1.95
2017-10-25T12:04:40.870Z,2.00
2017-10-25T12:07:09.740Z,2.22
2017-10-25T12:09:37.823Z,2.00
2017-10-25T12:12:05.910Z,2.30
2017-10-25T12:14:34.776Z,2.90
2017-10-25T12:17:02.847Z,1.92
2017-10-25T12:19:30.947Z,2.22
2017-10-25T12:21:59.815Z,1.65
2017-10-25T12:24:27.891Z,1.35
2017-10-25T12:26:55.982Z,0.90
2017-10-25T12:29:24.055Z,0.77
2017-10-25T12:31:52.890Z,1.00
2017-10-25T12:34:20.986Z,1.58
2017-10-25T12:36:49.482Z,1.27
2017-10-25T12:39:18.914Z,1.08
2017-10-25T12:41:46.894Z,0.90
2017-10-25T12:44:14.987Z,1.00
2017-10-25T12:46:43.063Z,0.70
2017-10-25T12:49:11.154Z,0.90
2017-10-25T12:51:39.230Z,0.60
2017-10-25T12:54:07.330Z,0.80
2017-10-25T12:56:36.165Z,0.90
2017-10-25T12:59:05.386Z,0.75
2017-10-25T13:01:33.490Z,0.85
2017-10-25T13:04:02.323Z,0.90
2017-10-25T13:06:31.163Z,1.15
2017-10-25T13:09:00.010Z,1.00
2017-10-25T13:11:29.434Z,1.30
2017-10-25T13:13:59.750Z,0.85
2017-10-25T13:16:32.471Z,0.75
2017-10-25T13:19:01.319Z,0.95
2017-10-25T13:21:29.398Z,1.00
2017-10-25T13:23:57.887Z,0.95
2017-10-25T13:26:25.969Z,1.08
2017-10-25T13:28:54.060Z,0.70
2017-10-25T13:31:22.899Z,1.20
2017-10-25T13:33:50.975Z,0.88
2017-10-25T13:36:19.074Z,0.80
2017-10-25T13:38:47.159Z,0.90
2017-10-25T13:41:16.366Z,0.90
2017-10-25T13:43:45.231Z,1.00
2017-10-25T13:46:13.323Z,0.90
2017-10-25T13:48:42.170Z,0.80
2017-10-25T13:51:10.254Z,1.00
2017-10-25T13:53:38.726Z,1.12
2017-10-25T13:56:06.827Z,0.90
2017-10-25T13:58:35.670Z,0.98
2017-10-25T14:01:03.738Z,1.10
2017-10-25T14:03:31.826Z,1.20
2017-10-25T14:06:01.063Z,0.98
2017-10-25T14:08:30.278Z,1.40
2017-10-25T14:10:59.135Z,1.48
2017-10-25T14:13:29.451Z,1.58
2017-10-25T14:15:57.527Z,1.17
2017-10-25T14:18:25.602Z,1.37
2017-10-25T14:20:53.697Z,1.30
2017-10-25T14:23:22.539Z,1.20
2017-10-25T14:25:50.648Z,1.02
2017-10-25T14:28:30.642Z,1.08
2017-10-25T14:30:59.146Z,1.10
2017-10-25T14:33:27.227Z,0.98
2017-10-25T14:35:56.066Z,1.37
2017-10-25T14:38:24.927Z,0.90
2017-10-25T14:40:53.002Z,1.30
2017-10-25T14:43:21.078Z,1.30
2017-10-25T14:45:49.176Z,1.20
2017-10-25T14:48:18.010Z,1.15
2017-10-25T14:50:46.131Z,1.15
2017-10-25T14:53:14.983Z,1.10
2017-10-25T14:55:43.054Z,1.17
2017-10-25T14:58:11.146Z,1.60
2017-10-25T15:00:39.229Z,4.32
2017-10-25T15:03:08.107Z,3.75
2017-10-25T15:05:36.579Z,4.28
2017-10-25T15:08:04.661Z,2.10
2017-10-25T15:10:32.750Z,2.42
2017-10-25T15:13:01.610Z,2.45
2017-10-25T15:15:29.682Z,1.85
2017-10-25T15:17:57.778Z,2.08
2017-10-25T15:20:26.618Z,1.65
2017-10-25T15:22:54.714Z,1.37
2017-10-25T15:25:22.795Z,1.65
2017-10-25T15:27:50.908Z,1.85
2017-10-25T15:30:18.995Z,2.00
2017-10-25T15:32:47.095Z,1.85
2017-10-25T15:35:15.570Z,2.50
2017-10-25T15:37:44.431Z,2.67
2017-10-25T15:40:12.527Z,2.25
2017-10-25T15:42:40.611Z,3.40
2017-10-25T15:45:08.687Z,5.12
2017-10-25T15:47:37.182Z,6.35
2017-10-25T15:50:05.260Z,6.15
2017-10-25T15:52:33.335Z,5.50
2017-10-25T15:55:01.428Z,4.03
2017-10-25T15:57:30.283Z,4.70
2017-10-25T15:59:58.395Z,4.43
2017-10-25T16:02:27.243Z,4.45
2017-10-25T16:04:55.343Z,4.65
2017-10-25T16:07:24.182Z,4.18
2017-10-25T16:09:52.259Z,4.10
2017-10-25T16:12:20.364Z,5.07
2017-10-25T16:14:48.435Z,4.72
2017-10-25T16:17:16.539Z,4.55
2017-10-25T16:19:45.171Z,4.87
2017-10-25T16:22:13.247Z,5.35
2017-10-25T16:24:42.860Z,4.75
2017-10-25T16:27:10.935Z,4.03
2017-10-25T16:29:39.070Z,3.75
2017-10-25T16:32:07.511Z,3.90
2017-10-25T16:34:36.375Z,4.90
2017-10-25T16:37:04.455Z,6.35
2017-10-25T16:39:32.558Z,5.03
2017-10-25T16:42:01.407Z,4.40
2017-10-25T16:44:29.487Z,4.35
2017-10-25T16:46:57.578Z,6.25
2017-10-25T16:49:26.423Z,7.22
2017-10-25T16:51:55.299Z,6.82
2017-10-25T16:54:23.384Z,9.13
2017-10-25T16:56:51.463Z,8.30
2017-10-25T16:59:19.546Z,6.30
2017-10-25T17:01:47.635Z,5.85
2017-10-25T17:04:15.719Z,6.25
2017-10-25T17:06:43.819Z,6.78
2017-10-25T17:09:11.890Z,7.60
2017-10-25T17:11:39.984Z,8.60
2017-10-25T17:14:08.055Z,7.60
2017-10-25T17:16:36.154Z,7.55
2017-10-25T17:19:04.231Z,6.47
2017-10-25T17:21:32.335Z,7.22
2017-10-25T17:24:01.175Z,6.00
2017-10-25T17:26:29.250Z,5.62
2017-10-25T17:28:57.345Z,6.00
2017-10-25T17:31:25.438Z,5.82
2017-10-25T17:33:54.299Z,5.65
2017-10-25T17:36:22.399Z,5.90
2017-10-25T17:38:51.238Z,6.25
2017-10-25T17:41:19.731Z,5.78
2017-10-25T17:43:47.810Z,6.70
2017-10-25T17:46:15.914Z,6.20
2017-10-25T17:48:45.382Z,5.62
2017-10-25T17:51:13.769Z,4.60
2017-10-25T17:53:41.870Z,4.45
2017-10-25T17:56:10.708Z,3.90
2017-10-25T17:58:38.782Z,3.40
2017-10-25T18:01:06.875Z,3.62
2017-10-25T18:03:35.718Z,3.35
2017-10-25T18:06:03.816Z,3.58
2017-10-25T18:08:31.903Z,3.78
2017-10-25T18:11:00.008Z,3.40
2017-10-25T18:13:28.083Z,2.53
2017-10-25T18:15:56.951Z,2.47
2017-10-25T18:18:26.250Z,2.83
2017-10-25T18:20:54.326Z,3.30
2017-10-25T18:23:22.407Z,3.45
2017-10-25T18:25:50.907Z,3.90
2017-10-25T18:28:19.735Z,3.47
2017-10-25T18:30:47.843Z,3.25
2017-10-25T18:33:15.979Z,3.53
2017-10-25T18:35:44.063Z,3.33
2017-10-25T18:38:12.163Z,3.72
2017-10-25T18:40:40.242Z,3.10
2017-10-25T18:43:08.759Z,3.30
2017-10-25T18:45:36.844Z,2.80
2017-10-25T18:48:04.931Z,3.40
2017-10-25T18:50:33.044Z,3.05
2017-10-25T18:53:01.132Z,3.00
2017-10-25T18:55:30.732Z,3.45
2017-10-25T18:57:59.581Z,3.35
2017-10-25T19:00:27.690Z,4.45
2017-10-25T19:02:56.547Z,4.30
2017-10-25T19:05:24.620Z,3.03
2017-10-25T19:07:52.719Z,3.08
2017-10-25T19:10:20.827Z,3.17
2017-10-25T19:12:50.368Z,3.20
2017-10-25T19:15:18.615Z,4.28
2017-10-25T19:17:46.971Z,3.37
2017-10-25T19:20:15.684Z,2.53
2017-10-25T19:22:44.037Z,2.97
2017-10-25T19:25:12.309Z,3.00
2017-10-25T19:27:40.607Z,3.70
2017-10-25T19:30:10.669Z,3.58
2017-10-25T19:32:38.936Z,3.12
2017-10-25T19:35:07.287Z,3.90
2017-10-25T19:37:35.602Z,2.60
2017-10-25T19:40:05.179Z,3.00
2017-10-25T19:42:33.501Z,3.20
2017-10-25T19:45:03.334Z,3.08
2017-10-25T19:47:31.685Z,3.10
2017-10-25T19:49:59.775Z,3.28
2017-10-25T19:52:27.870Z,2.80
2017-10-25T19:54:55.950Z,2.62
2017-10-25T19:57:24.824Z,2.83
2017-10-25T19:59:54.409Z,2.78
2017-10-25T20:02:22.520Z,3.00
2017-10-25T20:04:50.602Z,2.80
2017-10-25T20:07:19.863Z,2.80
2017-10-25T20:09:47.949Z,2.67
2017-10-25T20:12:16.796Z,3.08
2017-10-25T20:14:44.892Z,2.80
2017-10-25T20:17:13.003Z,3.58
2017-10-25T20:19:41.103Z,2.80
2017-10-25T20:22:09.208Z,2.62
2017-10-25T20:24:37.293Z,2.55
2017-10-25T20:27:05.785Z,2.40
2017-10-25T20:29:34.670Z,2.62
2017-10-25T20:32:03.535Z,2.85
2017-10-25T20:34:31.629Z,2.37
2017-10-25T20:37:01.246Z,2.78
2017-10-25T20:39:30.121Z,2.65
2017-10-25T20:41:58.202Z,2.40
2017-10-25T20:44:27.051Z,2.22
2017-10-25T20:46:55.264Z,2.50
2017-10-25T20:49:23.349Z,2.30
2017-10-25T20:51:51.418Z,2.28
2017-10-25T20:54:20.398Z,2.40
2017-10-25T20:56:48.959Z,2.15
2017-10-25T20:59:17.832Z,2.78
2017-10-25T21:01:45.914Z,3.10
2017-10-25T21:04:14.009Z,2.90
2017-10-25T21:06:42.100Z,3.20
2017-10-25T21:09:10.199Z,2.72
2017-10-25T21:11:38.687Z,3.05
2017-10-25T21:14:06.772Z,2.58
2017-10-25T21:16:34.883Z,2.95
2017-10-25T21:19:02.968Z,3.00
2017-10-25T21:21:31.847Z,2.75
2017-10-25T21:23:59.922Z,3.95
2017-10-25T21:26:28.011Z,3.10
2017-10-25T21:28:56.107Z,3.30
2017-10-25T21:31:24.193Z,3.60
2017-10-25T21:33:52.288Z,3.10
2017-10-25T21:36:20.408Z,2.90
2017-10-25T21:38:48.503Z,2.80
2017-10-25T21:41:16.601Z,2.87
2017-10-25T21:43:45.479Z,2.97
2017-10-25T21:46:13.558Z,2.80
2017-10-25T21:48:41.648Z,2.58
2017-10-25T21:51:09.748Z,3.05
2017-10-25T21:53:38.611Z,2.08
2017-10-25T21:56:06.713Z,2.90
2017-10-25T21:58:35.604Z,2.85
2017-10-25T22:01:04.083Z,2.50
2017-10-25T22:03:32.928Z,2.50
2017-10-25T22:06:01.027Z,3.20
2017-10-25T22:08:29.117Z,2.42
2017-10-25T22:10:57.979Z,2.70
2017-10-25T22:13:26.063Z,3.00
2017-10-25T22:15:54.170Z,3.00
2017-10-25T22:18:22.253Z,3.10
2017-10-25T22:20:50.332Z,3.45
2017-10-25T22:23:18.491Z,3.50
2017-10-25T22:25:46.575Z,3.28
2017-10-25T22:28:14.655Z,2.87
2017-10-25T22:30:42.763Z,2.85
2017-10-25T22:33:10.859Z,3.15
2017-10-25T22:35:39.343Z,3.10
2017-10-25T22:38:08.212Z,3.05
2017-10-25T22:40:36.291Z,3.00
2017-10-25T22:43:04.390Z,3.83
2017-10-25T22:45:32.471Z,4.00
2017-10-25T22:48:01.719Z,3.90
2017-10-25T22:50:29.787Z,2.90
2017-10-25T22:52:58.663Z,3.20
2017-10-25T22:55:26.754Z,3.80
2017-10-25T22:57:54.822Z,3.15
2017-10-25T23:00:24.056Z,3.47
2017-10-25T23:02:52.138Z,3.30
2017-10-25T23:05:21.006Z,3.33
2017-10-25T23:07:49.504Z,3.28
2017-10-25T23:10:17.572Z,4.60
2017-10-25T23:12:46.447Z,4.43
2017-10-25T23:15:15.291Z,4.57
2017-10-25T23:17:45.066Z,4.20
2017-10-25T23:20:15.254Z,3.70
2017-10-25T23:22:43.255Z,3.78
2017-10-25T23:25:11.377Z,3.22
2017-10-25T23:27:39.476Z,3.12
2017-10-25T23:30:08.716Z,2.92
2017-10-25T23:32:37.635Z,3.45
2017-10-25T23:35:05.738Z,3.12
2017-10-25T23:37:35.373Z,3.60
2017-10-25T23:40:03.855Z,4.55
2017-10-25T23:42:32.742Z,4.05
2017-10-25T23:45:01.262Z,4.35
2017-10-25T23:47:29.351Z,4.85
2017-10-25T23:49:58.220Z,4.22
2017-10-25T23:52:27.472Z,4.20
2017-10-25T23:54:55.573Z,4.03
2017-10-25T23:57:24.820Z,4.22
2017-10-25T23:59:52.907Z,5.12
